createdAt,value
2019-03-17T00:00:16.306Z,99.99
2019-03-17T00:01:16.292Z,99.99
2019-03-17T00:02:16.259Z,99.99
2019-03-17T00:03:16.243Z,99.99
2019-03-17T00:04:16.214Z,99.99
2019-03-17T00:05:16.214Z,99.99
2019-03-17T00:06:16.224Z,99.99
2019-03-17T00:07:16.147Z,99.99
2019-03-17T00:08:16.141Z,99.99
2019-03-17T00:09:16.103Z,99.99
2019-03-17T00:10:16.088Z,99.99
2019-03-17T00:11:16.081Z,99.99
2019-03-17T00:12:16.035Z,99.99
2019-03-17T00:13:17.839Z,99.99
2019-03-17T00:14:15.997Z,99.99
2019-03-17T00:15:15.968Z,99.99
2019-03-17T00:16:15.949Z,99.99
2019-03-17T00:17:15.923Z,99.99
2019-03-17T00:18:15.905Z,99.99
2019-03-17T00:19:15.879Z,99.99
2019-03-17T00:20:15.860Z,99.99
2019-03-17T00:21:15.831Z,99.99
2019-03-17T00:22:15.818Z,99.99
2019-03-17T00:23:15.788Z,99.99
2019-03-17T00:24:15.763Z,99.99
2019-03-17T00:25:15.745Z,99.99
2019-03-17T00:26:15.720Z,99.99
2019-03-17T00:27:15.698Z,99.99
2019-03-17T00:28:15.720Z,99.99
2019-03-17T00:29:15.656Z,99.99
2019-03-17T00:30:15.627Z,99.99
2019-03-17T00:31:23.863Z,99.99
2019-03-17T00:32:15.591Z,99.99
2019-03-17T00:33:15.566Z,99.99
2019-03-17T00:34:15.541Z,99.99
2019-03-17T00:35:15.512Z,99.99
2019-03-17T00:36:15.491Z,99.99
2019-03-17T00:37:15.469Z,99.99
2019-03-17T00:38:15.489Z,99.99
2019-03-17T00:39:15.431Z,99.99
2019-03-17T00:40:15.401Z,99.99
2019-03-17T00:41:15.377Z,99.99
2019-03-17T00:42:15.361Z,99.99
2019-03-17T00:43:15.342Z,99.99
2019-03-17T00:44:15.310Z,99.99
2019-03-17T00:45:15.291Z,99.99
2019-03-17T00:46:15.272Z,99.99
2019-03-17T00:47:15.240Z,99.99
2019-03-17T00:48:15.217Z,99.99
2019-03-17T00:49:15.196Z,99.99
2019-03-17T00:50:15.172Z,99.99
2019-03-17T00:51:15.153Z,99.99
2019-03-17T00:52:15.128Z,99.99
2019-03-17T00:53:15.105Z,99.99
2019-03-17T00:54:15.086Z,99.99
2019-03-17T00:55:15.070Z,99.99
2019-03-17T00:56:15.034Z,99.99
2019-03-17T00:57:15.019Z,99.99
2019-03-17T00:58:15.006Z,99.99
2019-03-17T00:59:14.968Z,99.99
2019-03-17T01:00:14.953Z,99.99
2019-03-17T01:01:14.922Z,99.99
2019-03-17T01:02:14.913Z,99.99
2019-03-17T01:03:14.883Z,99.99
2019-03-17T01:04:14.860Z,99.99
2019-03-17T01:05:14.840Z,99.99
2019-03-17T01:06:14.815Z,99.99
2019-03-17T01:07:14.787Z,99.74
2019-03-17T01:08:14.768Z,99.13
2019-03-17T01:09:14.740Z,99.36
2019-03-17T01:10:14.716Z,98.69
2019-03-17T01:11:14.698Z,97.99
2019-03-17T01:12:14.678Z,98.50
2019-03-17T01:13:14.652Z,98.13
2019-03-17T01:14:14.627Z,96.84
2019-03-17T01:15:14.607Z,97.03
2019-03-17T01:16:14.585Z,98.13
2019-03-17T01:17:14.556Z,97.13
2019-03-17T01:18:14.543Z,96.75
2019-03-17T01:19:14.521Z,95.51
2019-03-17T01:20:14.488Z,95.60
2019-03-17T01:21:14.477Z,95.60
2019-03-17T01:22:14.444Z,93.79
2019-03-17T01:23:14.431Z,93.55
2019-03-17T01:24:14.399Z,92.22
2019-03-17T01:25:14.389Z,92.60
2019-03-17T01:26:14.361Z,94.22
2019-03-17T01:27:14.342Z,95.17
2019-03-17T01:28:14.319Z,95.89
2019-03-17T01:29:14.301Z,96.36
2019-03-17T01:30:14.274Z,96.70
2019-03-17T01:31:14.250Z,98.03
2019-03-17T01:32:14.222Z,96.31
2019-03-17T01:33:14.238Z,95.22
2019-03-17T01:34:14.177Z,94.37
2019-03-17T01:35:14.159Z,93.60
2019-03-17T01:36:14.139Z,92.41
2019-03-17T01:37:14.115Z,91.55
2019-03-17T01:38:14.090Z,90.26
2019-03-17T01:39:14.071Z,89.26
2019-03-17T01:40:14.047Z,88.59
2019-03-17T01:41:14.023Z,88.50
2019-03-17T01:42:14.001Z,87.93
2019-03-17T01:43:13.987Z,87.64
2019-03-17T01:44:13.955Z,87.54
2019-03-17T01:45:13.939Z,87.54
2019-03-17T01:46:13.913Z,88.12
2019-03-17T01:47:13.902Z,88.02
2019-03-17T01:48:13.869Z,88.26
2019-03-17T01:49:13.848Z,88.12
2019-03-17T01:50:13.829Z,87.74
2019-03-17T01:51:13.805Z,88.12
2019-03-17T01:52:13.782Z,87.54
2019-03-17T01:53:13.767Z,87.93
2019-03-17T01:54:13.743Z,87.79
2019-03-17T01:55:13.719Z,87.74
2019-03-17T01:56:13.700Z,87.88
2019-03-17T01:57:13.680Z,87.83
2019-03-17T01:58:13.658Z,86.69
2019-03-17T01:59:13.646Z,86.30
2019-03-17T02:00:13.615Z,86.21
2019-03-17T02:01:13.588Z,85.35
2019-03-17T02:02:13.578Z,85.21
2019-03-17T02:03:13.549Z,85.30
2019-03-17T02:04:13.540Z,85.73
2019-03-17T02:05:21.989Z,85.83
2019-03-17T02:06:13.489Z,85.64
2019-03-17T02:07:13.460Z,86.30
2019-03-17T02:08:13.474Z,86.40
2019-03-17T02:09:13.419Z,86.02
2019-03-17T02:10:13.406Z,86.30
2019-03-17T02:11:13.381Z,86.30
2019-03-17T02:12:13.355Z,87.07
2019-03-17T02:13:13.339Z,86.59
2019-03-17T02:14:13.311Z,87.07
2019-03-17T02:15:13.291Z,87.07
2019-03-17T02:16:13.272Z,87.07
2019-03-17T02:17:13.253Z,87.07
2019-03-17T02:18:13.228Z,87.64
2019-03-17T02:19:13.234Z,86.98
2019-03-17T02:20:13.186Z,87.35
2019-03-17T02:21:13.164Z,86.83
2019-03-17T02:22:13.150Z,87.50
2019-03-17T02:23:13.126Z,86.83
2019-03-17T02:24:13.107Z,86.30
2019-03-17T02:25:13.086Z,86.21
2019-03-17T02:26:13.060Z,86.69
2019-03-17T02:27:13.044Z,85.54
2019-03-17T02:28:13.015Z,86.02
2019-03-17T02:29:12.992Z,86.30
2019-03-17T02:30:12.981Z,86.49
2019-03-17T02:31:12.953Z,86.83
2019-03-17T02:32:12.935Z,87.12
2019-03-17T02:33:12.911Z,87.21
2019-03-17T02:34:12.972Z,87.40
2019-03-17T02:35:12.892Z,87.40
2019-03-17T02:36:12.851Z,87.69
2019-03-17T02:37:12.838Z,87.02
2019-03-17T02:38:12.815Z,87.12
2019-03-17T02:39:12.789Z,86.21
2019-03-17T02:40:12.761Z,86.21
2019-03-17T02:41:12.740Z,86.21
2019-03-17T02:42:12.720Z,85.64
2019-03-17T02:43:12.705Z,86.02
2019-03-17T02:44:12.676Z,85.64
2019-03-17T02:45:12.654Z,86.49
2019-03-17T02:46:12.632Z,86.65
2019-03-17T02:47:12.616Z,86.30
2019-03-17T02:48:12.591Z,86.74
2019-03-17T02:49:12.571Z,86.30
2019-03-17T02:50:12.550Z,86.65
2019-03-17T02:51:12.536Z,86.65
2019-03-17T02:52:12.520Z,86.93
2019-03-17T02:53:12.483Z,87.40
2019-03-17T02:54:12.467Z,87.40
2019-03-17T02:55:12.442Z,86.65
2019-03-17T02:56:12.419Z,86.74
2019-03-17T02:57:12.404Z,87.40
2019-03-17T02:58:12.375Z,87.12
2019-03-17T02:59:12.362Z,87.02
2019-03-17T03:00:12.337Z,87.31
2019-03-17T03:01:12.318Z,87.60
2019-03-17T03:02:12.300Z,87.60
2019-03-17T03:03:12.270Z,87.21
2019-03-17T03:04:12.375Z,86.93
2019-03-17T03:05:12.228Z,86.83
2019-03-17T03:06:12.211Z,87.12
2019-03-17T03:07:12.183Z,87.40
2019-03-17T03:08:12.163Z,86.93
2019-03-17T03:09:12.162Z,87.02
2019-03-17T03:10:12.120Z,86.65
2019-03-17T03:11:12.100Z,86.74
2019-03-17T03:12:12.080Z,86.83
2019-03-17T03:13:12.055Z,86.16
2019-03-17T03:14:12.041Z,85.50
2019-03-17T03:15:12.014Z,85.54
2019-03-17T03:16:11.994Z,85.45
2019-03-17T03:17:11.988Z,85.54
2019-03-17T03:18:11.953Z,85.31
2019-03-17T03:19:11.940Z,85.78
2019-03-17T03:20:11.904Z,86.45
2019-03-17T03:21:11.885Z,86.16
2019-03-17T03:22:11.879Z,86.07
2019-03-17T03:23:11.840Z,86.26
2019-03-17T03:24:11.818Z,86.26
2019-03-17T03:25:11.798Z,86.83
2019-03-17T03:26:11.782Z,87.02
2019-03-17T03:27:11.764Z,87.31
2019-03-17T03:28:11.752Z,87.31
2019-03-17T03:29:11.714Z,87.31
2019-03-17T03:30:11.705Z,86.83
2019-03-17T03:31:11.670Z,86.36
2019-03-17T03:32:11.677Z,86.55
2019-03-17T03:33:11.632Z,86.83
2019-03-17T03:34:11.611Z,87.31
2019-03-17T03:35:11.601Z,87.65
2019-03-17T03:36:12.112Z,87.84
2019-03-17T03:37:11.543Z,87.84
2019-03-17T03:38:11.519Z,88.12
2019-03-17T03:39:11.503Z,88.60
2019-03-17T03:40:11.526Z,88.89
2019-03-17T03:41:11.452Z,88.60
2019-03-17T03:42:11.451Z,88.60
2019-03-17T03:43:11.410Z,87.79
2019-03-17T03:44:11.387Z,87.88
2019-03-17T03:45:11.371Z,88.07
2019-03-17T03:46:11.343Z,87.79
2019-03-17T03:47:11.330Z,87.98
2019-03-17T03:48:11.301Z,88.64
2019-03-17T03:49:11.283Z,88.31
2019-03-17T03:50:11.257Z,88.51
2019-03-17T03:51:11.242Z,88.79
2019-03-17T03:52:11.215Z,89.07
2019-03-17T03:53:11.199Z,88.98
2019-03-17T03:54:11.179Z,88.51
2019-03-17T03:55:11.151Z,89.17
2019-03-17T03:56:11.125Z,88.22
2019-03-17T03:57:11.115Z,89.26
2019-03-17T03:58:11.152Z,89.17
2019-03-17T03:59:11.058Z,89.07
2019-03-17T04:00:11.056Z,88.79
2019-03-17T04:01:11.029Z,89.36
2019-03-17T04:02:10.998Z,89.55
2019-03-17T04:03:10.979Z,90.12
2019-03-17T04:04:10.953Z,89.94
2019-03-17T04:05:10.945Z,89.26
2019-03-17T04:06:25.166Z,88.79
2019-03-17T04:07:10.891Z,88.45
2019-03-17T04:08:10.868Z,87.88
2019-03-17T04:09:10.845Z,87.88
2019-03-17T04:10:10.823Z,88.55
2019-03-17T04:11:10.802Z,87.79
2019-03-17T04:12:10.819Z,87.98
2019-03-17T04:13:10.759Z,88.55
2019-03-17T04:14:10.740Z,88.64
2019-03-17T04:15:10.717Z,88.45
2019-03-17T04:16:10.697Z,88.45
2019-03-17T04:17:10.672Z,87.98
2019-03-17T04:18:10.657Z,87.98
2019-03-17T04:19:10.646Z,88.55
2019-03-17T04:20:10.610Z,88.26
2019-03-17T04:21:10.601Z,88.55
2019-03-17T04:22:10.565Z,89.22
2019-03-17T04:23:10.546Z,89.22
2019-03-17T04:24:10.523Z,89.36
2019-03-17T04:25:10.499Z,89.94
2019-03-17T04:26:10.492Z,89.46
2019-03-17T04:27:10.454Z,90.50
2019-03-17T04:28:10.432Z,90.70
2019-03-17T04:29:10.419Z,90.75
2019-03-17T04:30:10.397Z,91.31
2019-03-17T04:31:14.129Z,92.08
2019-03-17T04:32:10.372Z,92.27
2019-03-17T04:33:10.350Z,92.03
2019-03-17T04:34:10.310Z,92.70
2019-03-17T04:35:10.282Z,92.99
2019-03-17T04:36:10.271Z,93.65
2019-03-17T04:37:10.236Z,93.98
2019-03-17T04:38:10.214Z,94.46
2019-03-17T04:39:10.198Z,94.93
2019-03-17T04:40:10.176Z,95.03
2019-03-17T04:41:10.152Z,95.51
2019-03-17T04:42:10.130Z,96.26
2019-03-17T04:43:10.103Z,95.65
2019-03-17T04:44:20.325Z,95.89
2019-03-17T04:45:10.064Z,95.51
2019-03-17T04:46:10.053Z,95.51
2019-03-17T04:47:10.023Z,94.79
2019-03-17T04:48:09.995Z,94.70
2019-03-17T04:49:09.972Z,94.03
2019-03-17T04:50:09.958Z,93.32
2019-03-17T04:51:09.927Z,93.41
2019-03-17T04:52:09.905Z,92.55
2019-03-17T04:53:09.889Z,92.69
2019-03-17T04:54:09.860Z,92.13
2019-03-17T04:55:09.840Z,91.94
2019-03-17T04:56:09.815Z,92.03
2019-03-17T04:57:09.816Z,92.89
2019-03-17T04:58:09.780Z,92.22
2019-03-17T04:59:09.748Z,91.74
2019-03-17T05:00:09.726Z,92.13
2019-03-17T05:01:09.703Z,92.22
2019-03-17T05:02:09.687Z,92.60
2019-03-17T05:03:09.661Z,91.94
2019-03-17T05:04:09.636Z,92.27
2019-03-17T05:05:09.614Z,92.94
2019-03-17T05:06:09.644Z,93.22
2019-03-17T05:07:09.578Z,92.84
2019-03-17T05:08:09.556Z,92.98
2019-03-17T05:09:09.547Z,92.41
2019-03-17T05:10:09.504Z,91.84
2019-03-17T05:11:09.486Z,91.94
2019-03-17T05:12:09.469Z,92.03
2019-03-17T05:13:09.440Z,92.46
2019-03-17T05:14:09.420Z,92.60
2019-03-17T05:15:09.395Z,91.84
2019-03-17T05:16:09.395Z,92.22
2019-03-17T05:17:09.355Z,91.65
2019-03-17T05:18:09.328Z,91.94
2019-03-17T05:19:09.313Z,91.36
2019-03-17T05:20:09.311Z,92.13
2019-03-17T05:21:09.271Z,92.13
2019-03-17T05:22:09.246Z,91.17
2019-03-17T05:23:09.224Z,91.60
2019-03-17T05:24:09.195Z,90.79
2019-03-17T05:25:09.179Z,91.27
2019-03-17T05:26:09.157Z,91.36
2019-03-17T05:27:09.131Z,91.55
2019-03-17T05:28:09.112Z,91.27
2019-03-17T05:29:09.094Z,91.17
2019-03-17T05:30:09.081Z,90.98
2019-03-17T05:31:09.041Z,91.55
2019-03-17T05:32:09.026Z,91.65
2019-03-17T05:33:09.004Z,91.74
2019-03-17T05:34:08.978Z,91.74
2019-03-17T05:35:08.955Z,92.22
2019-03-17T05:36:08.934Z,92.69
2019-03-17T05:37:08.961Z,92.94
2019-03-17T05:38:08.923Z,92.65
2019-03-17T05:39:08.873Z,92.50
2019-03-17T05:40:08.853Z,92.79
2019-03-17T05:41:08.822Z,92.22
2019-03-17T05:42:08.811Z,92.22
2019-03-17T05:43:08.780Z,92.32
2019-03-17T05:44:08.761Z,92.32
2019-03-17T05:45:08.738Z,92.13
2019-03-17T05:46:08.713Z,92.22
2019-03-17T05:47:08.710Z,92.03
2019-03-17T05:48:08.670Z,92.41
2019-03-17T05:49:08.649Z,91.65
2019-03-17T05:50:08.634Z,91.84
2019-03-17T05:51:08.609Z,91.74
2019-03-17T05:52:08.582Z,91.74
2019-03-17T05:53:08.566Z,91.94
2019-03-17T05:54:08.537Z,91.74
2019-03-17T05:55:08.518Z,91.55
2019-03-17T05:56:08.493Z,91.84
2019-03-17T05:57:08.471Z,91.65
2019-03-17T05:58:08.514Z,91.74
2019-03-17T05:59:08.438Z,92.32
2019-03-17T06:00:08.408Z,91.65
2019-03-17T06:01:08.392Z,91.46
2019-03-17T06:02:08.370Z,91.17
2019-03-17T06:03:08.346Z,91.27
2019-03-17T06:04:08.317Z,91.74
2019-03-17T06:05:08.308Z,91.84
2019-03-17T06:06:08.281Z,92.32
2019-03-17T06:07:18.105Z,92.03
2019-03-17T06:08:08.236Z,91.74
2019-03-17T06:09:08.211Z,91.65
2019-03-17T06:10:08.195Z,92.41
2019-03-17T06:11:08.166Z,91.84
2019-03-17T06:12:08.150Z,92.27
2019-03-17T06:13:08.126Z,92.03
2019-03-17T06:14:08.100Z,91.84
2019-03-17T06:15:08.080Z,91.74
2019-03-17T06:16:08.058Z,92.41
2019-03-17T06:17:08.043Z,91.46
2019-03-17T06:18:08.023Z,91.84
2019-03-17T06:19:08.064Z,92.03
2019-03-17T06:20:07.975Z,92.50
2019-03-17T06:21:07.949Z,92.03
2019-03-17T06:22:07.927Z,91.17
2019-03-17T06:23:07.914Z,91.65
2019-03-17T06:24:07.881Z,91.94
2019-03-17T06:25:07.869Z,91.65
2019-03-17T06:26:07.840Z,92.17
2019-03-17T06:27:07.817Z,91.22
2019-03-17T06:28:07.795Z,90.84
2019-03-17T06:29:07.776Z,90.64
2019-03-17T06:30:07.754Z,91.03
2019-03-17T06:31:07.737Z,91.60
2019-03-17T06:32:07.711Z,91.22
2019-03-17T06:33:07.688Z,91.13
2019-03-17T06:34:07.670Z,91.55
2019-03-17T06:35:07.649Z,91.84
2019-03-17T06:36:07.631Z,91.31
2019-03-17T06:37:07.602Z,90.93
2019-03-17T06:38:07.583Z,90.55
2019-03-17T06:39:07.560Z,91.22
2019-03-17T06:40:07.538Z,91.03
2019-03-17T06:41:07.522Z,90.64
2019-03-17T06:42:07.496Z,90.36
2019-03-17T06:43:07.481Z,90.84
2019-03-17T06:44:07.453Z,90.64
2019-03-17T06:45:07.429Z,90.36
2019-03-17T06:46:07.413Z,90.64
2019-03-17T06:47:07.397Z,90.55
2019-03-17T06:48:07.371Z,91.13
2019-03-17T06:49:07.346Z,90.74
2019-03-17T06:50:07.327Z,90.64
2019-03-17T06:51:07.300Z,90.45
2019-03-17T06:52:07.278Z,90.64
2019-03-17T06:53:07.266Z,90.55
2019-03-17T06:54:07.239Z,90.26
2019-03-17T06:55:07.227Z,90.36
2019-03-17T06:56:07.203Z,90.64
2019-03-17T06:57:07.175Z,90.26
2019-03-17T06:58:07.160Z,90.08
2019-03-17T06:59:07.132Z,90.36
2019-03-17T07:00:07.115Z,89.98
2019-03-17T07:01:07.089Z,90.45
2019-03-17T07:02:07.066Z,90.64
2019-03-17T07:03:07.047Z,90.64
2019-03-17T07:04:07.031Z,89.79
2019-03-17T07:05:07.015Z,90.55
2019-03-17T07:06:06.989Z,90.64
2019-03-17T07:07:06.967Z,91.03
2019-03-17T07:08:06.941Z,90.64
2019-03-17T07:09:06.985Z,89.98
2019-03-17T07:10:06.898Z,89.79
2019-03-17T07:11:06.882Z,89.98
2019-03-17T07:12:06.860Z,90.26
2019-03-17T07:13:06.844Z,89.98
2019-03-17T07:14:06.818Z,90.26
2019-03-17T07:15:06.792Z,90.64
2019-03-17T07:16:06.770Z,90.26
2019-03-17T07:17:06.751Z,91.13
2019-03-17T07:18:06.738Z,90.64
2019-03-17T07:19:06.718Z,90.84
2019-03-17T07:20:06.687Z,90.64
2019-03-17T07:21:06.668Z,90.93
2019-03-17T07:22:06.649Z,90.55
2019-03-17T07:23:06.626Z,90.74
2019-03-17T07:24:06.604Z,90.64
2019-03-17T07:25:06.594Z,90.36
2019-03-17T07:26:06.562Z,90.36
2019-03-17T07:27:06.543Z,90.08
2019-03-17T07:28:06.521Z,89.79
2019-03-17T07:29:06.503Z,90.64
2019-03-17T07:30:06.479Z,90.26
2019-03-17T07:31:06.466Z,90.26
2019-03-17T07:32:06.446Z,90.45
2019-03-17T07:33:06.428Z,90.55
2019-03-17T07:34:06.424Z,90.64
2019-03-17T07:35:06.383Z,90.17
2019-03-17T07:36:06.360Z,90.26
2019-03-17T07:37:06.346Z,90.41
2019-03-17T07:38:06.314Z,89.83
2019-03-17T07:39:11.612Z,88.64
2019-03-17T07:40:06.286Z,88.26
2019-03-17T07:41:06.272Z,87.35
2019-03-17T07:42:06.248Z,86.96
2019-03-17T07:43:06.215Z,86.68
2019-03-17T07:44:06.193Z,86.68
2019-03-17T07:45:06.170Z,86.05
2019-03-17T07:46:06.157Z,84.62
2019-03-17T07:47:06.129Z,84.81
2019-03-17T07:48:06.121Z,84.66
2019-03-17T07:49:06.098Z,83.70
2019-03-17T07:50:06.073Z,83.70
2019-03-17T07:51:06.056Z,83.61
2019-03-17T07:52:06.031Z,83.33
2019-03-17T07:53:06.022Z,83.17
2019-03-17T07:54:05.992Z,82.46
2019-03-17T07:55:05.974Z,83.51
2019-03-17T07:56:05.954Z,82.65
2019-03-17T07:57:05.938Z,83.23
2019-03-17T07:58:05.914Z,82.65
2019-03-17T07:59:05.895Z,83.04
2019-03-17T08:00:05.882Z,83.13
2019-03-17T08:01:05.878Z,83.80
2019-03-17T08:02:05.840Z,83.61
2019-03-17T08:03:05.856Z,83.61
2019-03-17T08:04:05.805Z,83.42
2019-03-17T08:05:05.779Z,83.27
2019-03-17T08:06:05.767Z,83.46
2019-03-17T08:07:05.745Z,82.41
2019-03-17T08:08:09.597Z,82.79
2019-03-17T08:09:05.713Z,82.89
2019-03-17T08:10:05.694Z,82.41
2019-03-17T08:11:05.680Z,82.98
2019-03-17T08:12:05.653Z,82.70
2019-03-17T08:13:05.633Z,82.51
2019-03-17T08:14:05.620Z,82.17
2019-03-17T08:15:05.598Z,80.82
2019-03-17T08:16:05.579Z,81.36
2019-03-17T08:17:05.563Z,81.41
2019-03-17T08:18:05.545Z,82.31
2019-03-17T08:19:05.567Z,82.26
2019-03-17T08:20:05.507Z,81.65
2019-03-17T08:21:05.494Z,82.31
2019-03-17T08:22:05.478Z,82.03
2019-03-17T08:23:05.453Z,82.51
2019-03-17T08:24:05.433Z,82.51
2019-03-17T08:25:05.418Z,82.45
2019-03-17T08:26:05.409Z,82.35
2019-03-17T08:27:05.389Z,81.88
2019-03-17T08:28:05.370Z,81.11
2019-03-17T08:29:05.376Z,82.65
2019-03-17T08:30:05.341Z,83.94
2019-03-17T08:31:05.308Z,83.46
2019-03-17T08:32:05.298Z,82.22
2019-03-17T08:33:05.280Z,84.13
2019-03-17T08:34:05.263Z,82.45
2019-03-17T08:35:05.241Z,81.55
2019-03-17T08:36:05.221Z,81.97
2019-03-17T08:37:05.212Z,82.07
2019-03-17T08:38:05.187Z,80.73
2019-03-17T08:39:05.173Z,81.30
2019-03-17T08:40:05.157Z,80.96
2019-03-17T08:41:05.141Z,81.11
2019-03-17T08:42:05.130Z,80.96
2019-03-17T08:43:05.100Z,80.73
2019-03-17T08:44:05.081Z,80.87
2019-03-17T08:45:05.074Z,80.92
2019-03-17T08:46:05.049Z,80.87
2019-03-17T08:47:05.039Z,81.15
2019-03-17T08:48:05.023Z,81.05
2019-03-17T08:49:05.001Z,80.38
2019-03-17T08:50:05.182Z,80.58
2019-03-17T08:51:04.974Z,81.67
2019-03-17T08:52:04.947Z,80.67
2019-03-17T08:53:04.934Z,79.81
2019-03-17T08:54:04.915Z,80.67
2019-03-17T08:55:04.904Z,80.73
2019-03-17T08:56:04.885Z,82.45
2019-03-17T08:57:04.863Z,83.50
2019-03-17T08:58:04.853Z,81.34
2019-03-17T08:59:04.845Z,81.44
2019-03-17T09:00:04.822Z,80.47
2019-03-17T09:01:04.799Z,80.87
2019-03-17T09:02:04.790Z,81.30
2019-03-17T09:03:04.776Z,83.17
2019-03-17T09:04:04.751Z,84.52
2019-03-17T09:05:04.739Z,83.83
2019-03-17T09:06:04.725Z,82.87
2019-03-17T09:07:04.709Z,81.97
2019-03-17T09:08:04.692Z,84.13
2019-03-17T09:09:04.675Z,85.41
2019-03-17T09:10:04.654Z,84.32
2019-03-17T09:11:04.638Z,85.05
2019-03-17T09:12:04.628Z,86.72
2019-03-17T09:13:04.614Z,87.58
2019-03-17T09:14:04.590Z,88.25
2019-03-17T09:15:04.577Z,88.82
2019-03-17T09:16:04.558Z,88.63
2019-03-17T09:17:13.686Z,88.78
2019-03-17T09:18:04.526Z,88.97
2019-03-17T09:19:04.508Z,89.45
2019-03-17T09:20:04.490Z,90.21
2019-03-17T09:21:04.473Z,90.50
2019-03-17T09:22:04.458Z,90.78
2019-03-17T09:23:04.445Z,90.69
2019-03-17T09:24:16.347Z,90.78
2019-03-17T09:25:04.405Z,90.78
2019-03-17T09:26:04.387Z,90.59
2019-03-17T09:27:04.375Z,90.69
2019-03-17T09:28:04.352Z,89.64
2019-03-17T09:29:04.336Z,91.07
2019-03-17T09:30:04.316Z,90.97
2019-03-17T09:31:07.322Z,90.97
2019-03-17T09:32:04.282Z,90.78
2019-03-17T09:33:04.304Z,91.16
2019-03-17T09:34:04.249Z,91.07
2019-03-17T09:35:04.230Z,91.55
2019-03-17T09:36:04.214Z,91.36
2019-03-17T09:37:04.192Z,90.97
2019-03-17T09:38:04.182Z,91.26
2019-03-17T09:39:04.163Z,91.55
2019-03-17T09:40:04.141Z,91.74
2019-03-17T09:41:04.130Z,91.07
2019-03-17T09:42:04.106Z,90.73
2019-03-17T09:43:04.087Z,90.64
2019-03-17T09:44:04.070Z,91.02
2019-03-17T09:45:04.059Z,89.97
2019-03-17T09:46:04.033Z,90.25
2019-03-17T09:47:04.023Z,90.45
2019-03-17T09:48:03.997Z,89.97
2019-03-17T09:49:03.981Z,89.39
2019-03-17T09:50:04.010Z,89.73
2019-03-17T09:51:03.961Z,89.44
2019-03-17T09:52:03.933Z,89.06
2019-03-17T09:53:03.911Z,89.53
2019-03-17T09:54:03.898Z,89.25
2019-03-17T09:55:03.879Z,89.44
2019-03-17T09:56:03.879Z,89.53
2019-03-17T09:57:03.843Z,88.68
2019-03-17T09:58:03.831Z,88.43
2019-03-17T09:59:03.820Z,86.70
2019-03-17T10:00:03.804Z,84.55
2019-03-17T10:01:03.774Z,84.08
2019-03-17T10:02:03.767Z,85.75
2019-03-17T10:03:03.742Z,86.52
2019-03-17T10:04:03.726Z,87.00
2019-03-17T10:05:03.721Z,87.57
2019-03-17T10:06:03.709Z,87.38
2019-03-17T10:07:03.678Z,86.80
2019-03-17T10:08:03.677Z,86.86
2019-03-17T10:09:03.657Z,88.63
2019-03-17T10:10:03.634Z,89.01
2019-03-17T10:11:03.618Z,89.87
2019-03-17T10:12:03.607Z,89.87
2019-03-17T10:13:03.616Z,90.92
2019-03-17T10:14:03.573Z,90.21
2019-03-17T10:15:03.555Z,89.92
2019-03-17T10:16:03.551Z,90.64
2019-03-17T10:17:03.537Z,90.73
2019-03-17T10:18:03.505Z,89.39
2019-03-17T10:19:03.485Z,89.87
2019-03-17T10:20:03.471Z,89.34
2019-03-17T10:21:03.453Z,89.15
2019-03-17T10:22:03.439Z,88.87
2019-03-17T10:23:03.418Z,88.29
2019-03-17T10:24:03.407Z,88.87
2019-03-17T10:25:03.387Z,89.53
2019-03-17T10:26:03.364Z,89.01
2019-03-17T10:27:03.354Z,89.97
2019-03-17T10:28:03.338Z,90.54
2019-03-17T10:29:03.316Z,90.54
2019-03-17T10:30:03.304Z,90.73
2019-03-17T10:31:03.323Z,90.73
2019-03-17T10:32:03.269Z,90.92
2019-03-17T10:33:03.256Z,92.12
2019-03-17T10:34:03.315Z,91.88
2019-03-17T10:35:03.224Z,92.36
2019-03-17T10:36:03.202Z,91.64
2019-03-17T10:37:03.188Z,91.97
2019-03-17T10:38:03.183Z,92.07
2019-03-17T10:39:11.863Z,91.97
2019-03-17T10:40:03.156Z,91.45
2019-03-17T10:41:03.135Z,91.88
2019-03-17T10:42:03.115Z,91.88
2019-03-17T10:43:03.100Z,92.26
2019-03-17T10:44:03.080Z,92.74
2019-03-17T10:45:03.060Z,92.93
2019-03-17T10:46:03.059Z,92.83
2019-03-17T10:47:03.030Z,91.78
2019-03-17T10:48:03.009Z,92.36
2019-03-17T10:49:03.000Z,92.55
2019-03-17T10:50:02.987Z,92.64
2019-03-17T10:51:02.966Z,91.69
2019-03-17T10:52:02.955Z,91.74
2019-03-17T10:53:02.936Z,92.02
2019-03-17T10:54:02.920Z,92.79
2019-03-17T10:55:02.906Z,92.97
2019-03-17T10:56:02.885Z,92.97
2019-03-17T10:57:02.868Z,94.51
2019-03-17T10:58:02.861Z,94.31
2019-03-17T10:59:02.835Z,94.70
2019-03-17T11:00:02.822Z,95.08
2019-03-17T11:01:02.810Z,94.98
2019-03-17T11:02:02.787Z,94.70
2019-03-17T11:03:02.768Z,94.89
2019-03-17T11:04:02.758Z,95.56
2019-03-17T11:05:02.736Z,95.94
2019-03-17T11:06:02.720Z,94.84
2019-03-17T11:07:02.712Z,94.74
2019-03-17T11:08:02.694Z,94.03
2019-03-17T11:09:02.672Z,94.93
2019-03-17T11:10:02.659Z,94.27
2019-03-17T11:11:02.662Z,94.74
2019-03-17T11:12:02.630Z,94.12
2019-03-17T11:13:02.611Z,94.98
2019-03-17T11:14:02.595Z,95.56
2019-03-17T11:15:02.579Z,96.03
2019-03-17T11:16:02.559Z,96.22
2019-03-17T11:17:02.544Z,96.80
2019-03-17T11:18:02.528Z,96.98
2019-03-17T11:19:02.505Z,97.27
2019-03-17T11:20:02.492Z,97.94
2019-03-17T11:21:02.470Z,99.08
2019-03-17T11:22:02.457Z,99.99
2019-03-17T11:23:02.439Z,99.99
2019-03-17T11:24:02.418Z,99.80
2019-03-17T11:25:02.415Z,99.99
2019-03-17T11:26:02.387Z,99.99
2019-03-17T11:27:02.387Z,99.99
2019-03-17T11:28:02.355Z,99.99
2019-03-17T11:29:02.335Z,99.99
2019-03-17T11:30:02.327Z,99.99
2019-03-17T11:31:02.303Z,99.99
2019-03-17T11:32:02.284Z,99.99
2019-03-17T11:33:02.275Z,99.99
2019-03-17T11:34:02.255Z,99.99
2019-03-17T11:35:02.258Z,99.99
2019-03-17T11:36:02.220Z,99.99
2019-03-17T11:37:02.198Z,99.99
2019-03-17T11:38:02.179Z,99.99
2019-03-17T11:39:02.160Z,99.99
2019-03-17T11:40:02.146Z,99.99
2019-03-17T11:41:02.121Z,99.99
2019-03-17T11:42:02.112Z,99.99
2019-03-17T11:43:02.088Z,99.75
2019-03-17T11:44:02.071Z,99.99
2019-03-17T11:45:02.059Z,99.99
2019-03-17T11:46:02.034Z,99.95
2019-03-17T11:47:02.017Z,99.99
2019-03-17T11:48:02.002Z,99.99
2019-03-17T11:49:01.982Z,99.99
2019-03-17T11:50:01.956Z,99.99
2019-03-17T11:51:01.941Z,99.99
2019-03-17T11:52:01.933Z,99.99
2019-03-17T11:53:01.902Z,99.99
2019-03-17T11:54:01.883Z,99.99
2019-03-17T11:55:01.863Z,99.99
2019-03-17T11:56:01.849Z,99.99
2019-03-17T11:57:01.831Z,99.99
2019-03-17T11:58:01.813Z,99.99
2019-03-17T11:59:01.793Z,99.99
2019-03-17T12:00:01.768Z,99.99
2019-03-17T12:01:01.748Z,99.99
2019-03-17T12:02:01.732Z,99.99
2019-03-17T12:03:01.710Z,99.99
2019-03-17T12:04:01.691Z,99.99
2019-03-17T12:05:01.697Z,99.99
2019-03-17T12:06:01.649Z,99.99
2019-03-17T12:07:01.633Z,99.99
2019-03-17T12:08:01.617Z,99.99
2019-03-17T12:09:04.349Z,99.99
2019-03-17T12:10:01.578Z,99.99
2019-03-17T12:11:01.553Z,99.99
2019-03-17T12:12:01.543Z,99.99
2019-03-17T12:13:01.528Z,99.99
2019-03-17T12:14:01.490Z,99.99
2019-03-17T12:15:01.468Z,99.99
2019-03-17T12:16:01.455Z,99.99
2019-03-17T12:17:01.433Z,99.99
2019-03-17T12:18:01.414Z,99.99
2019-03-17T12:19:01.440Z,99.99
2019-03-17T12:20:01.370Z,99.99
2019-03-17T12:21:01.346Z,99.99
2019-03-17T12:22:09.169Z,99.99
2019-03-17T12:23:01.308Z,99.99
2019-03-17T12:24:01.283Z,99.99
2019-03-17T12:25:01.263Z,99.99
2019-03-17T12:26:01.235Z,99.99
2019-03-17T12:27:01.212Z,99.99
2019-03-17T12:28:01.190Z,99.99
2019-03-17T12:29:01.168Z,99.99
2019-03-17T12:30:01.152Z,99.99
2019-03-17T12:31:02.075Z,99.99
2019-03-17T12:32:01.112Z,99.99
2019-03-17T12:33:01.080Z,99.99
2019-03-17T12:34:01.064Z,99.99
2019-03-17T12:35:01.046Z,99.99
2019-03-17T12:36:01.013Z,99.99
2019-03-17T12:37:00.997Z,99.99
2019-03-17T12:38:00.978Z,99.99
2019-03-17T12:39:00.946Z,99.99
2019-03-17T12:40:02.703Z,99.99
2019-03-17T12:41:00.903Z,99.99
2019-03-17T12:42:00.883Z,99.99
2019-03-17T12:43:00.862Z,99.99
2019-03-17T12:44:00.834Z,99.99
2019-03-17T12:45:00.815Z,99.99
2019-03-17T12:46:00.793Z,99.99
2019-03-17T12:47:00.777Z,99.99
2019-03-17T12:48:00.854Z,99.99
2019-03-17T12:49:00.726Z,99.99
2019-03-17T12:50:00.706Z,99.99
2019-03-17T12:51:00.686Z,99.99
2019-03-17T12:52:00.665Z,99.99